createdAt,value
2022-11-02T00:01:55.785Z,61.81
2022-11-02T00:04:22.759Z,61.46
2022-11-02T00:06:49.625Z,61.69
2022-11-02T00:09:16.507Z,61.84
2022-11-02T00:11:43.434Z,61.55
2022-11-02T00:14:10.306Z,61.88
2022-11-02T00:16:39.971Z,61.67
2022-11-02T00:19:08.290Z,62.04
2022-11-02T00:21:36.762Z,61.71
2022-11-02T00:24:05.834Z,62.03
2022-11-02T00:26:35.471Z,62.24
2022-11-02T00:29:04.548Z,62.05
2022-11-02T00:31:31.861Z,62.16
2022-11-02T00:33:58.745Z,61.86
2022-11-02T00:36:25.655Z,61.78
2022-11-02T00:38:52.534Z,61.81
2022-11-02T00:41:20.249Z,61.65
2022-11-02T00:43:47.367Z,61.86
2022-11-02T00:46:14.934Z,61.64
2022-11-02T00:48:42.246Z,61.75
2022-11-02T00:51:10.035Z,61.86
2022-11-02T00:53:37.032Z,61.59
2022-11-02T00:56:03.975Z,61.67
2022-11-02T00:58:30.868Z,62.12
2022-11-02T01:00:57.905Z,62.07
2022-11-02T01:03:25.916Z,62.06
2022-11-02T01:05:52.812Z,61.99
2022-11-02T01:08:19.718Z,62.16
2022-11-02T01:10:48.329Z,62.00
2022-11-02T01:13:16.910Z,62.08
2022-11-02T01:15:43.827Z,61.88
2022-11-02T01:18:10.712Z,62.20
2022-11-02T01:20:37.607Z,62.06
2022-11-02T01:23:04.522Z,62.12
2022-11-02T01:25:31.411Z,62.11
2022-11-02T01:27:58.289Z,62.45
2022-11-02T01:30:25.203Z,62.20
2022-11-02T01:32:52.111Z,62.34
2022-11-02T01:35:20.215Z,62.31
2022-11-02T01:37:47.094Z,62.39
2022-11-02T01:40:14.086Z,62.75
2022-11-02T01:42:41.026Z,62.59
2022-11-02T01:45:09.518Z,62.50
2022-11-02T01:47:39.275Z,62.42
2022-11-02T01:50:16.510Z,62.64
2022-11-02T01:52:43.472Z,62.71
2022-11-02T01:55:12.551Z,62.67
2022-11-02T01:57:43.588Z,63.07
2022-11-02T02:00:15.810Z,62.98
2022-11-02T02:03:07.422Z,62.83
2022-11-02T02:05:40.293Z,62.78
2022-11-02T02:08:09.895Z,62.63
2022-11-02T02:10:36.927Z,62.73
2022-11-02T02:13:07.306Z,62.74
2022-11-02T02:15:56.248Z,63.06
2022-11-02T02:18:48.866Z,62.78
2022-11-02T02:22:15.647Z,62.70
2022-11-02T02:25:19.237Z,63.00
2022-11-02T02:28:26.219Z,62.69
2022-11-02T02:31:03.257Z,62.92
2022-11-02T02:34:10.620Z,62.80
2022-11-02T02:37:04.094Z,62.81
2022-11-02T02:39:42.005Z,62.75
2022-11-02T02:42:23.397Z,62.97
2022-11-02T02:45:17.006Z,63.47
2022-11-02T02:47:52.790Z,63.39
2022-11-02T02:50:29.835Z,63.51
2022-11-02T02:52:59.627Z,63.42
2022-11-02T02:55:33.134Z,63.58
2022-11-02T02:58:02.745Z,63.61
2022-11-02T03:00:31.501Z,63.23
2022-11-02T03:03:03.043Z,63.01
2022-11-02T03:05:35.157Z,63.03
2022-11-02T03:08:11.742Z,63.14
2022-11-02T03:10:56.851Z,63.03
2022-11-02T03:13:48.299Z,62.96
2022-11-02T03:16:49.455Z,63.08
2022-11-02T03:19:43.879Z,62.79
2022-11-02T03:22:31.313Z,63.01
2022-11-02T03:25:13.867Z,62.94
2022-11-02T03:28:27.318Z,63.20
2022-11-02T03:31:11.801Z,63.09
2022-11-02T03:33:53.988Z,62.91
2022-11-02T03:36:31.850Z,62.97
2022-11-02T03:39:08.798Z,62.96
2022-11-02T03:41:43.540Z,63.24
2022-11-02T03:44:21.604Z,63.27
2022-11-02T03:46:51.598Z,63.46
2022-11-02T03:49:20.320Z,63.35
2022-11-02T03:51:50.018Z,63.47
2022-11-02T03:54:33.475Z,63.84
2022-11-02T03:59:32.559Z,63.97
2022-11-02T04:02:00.960Z,64.33
2022-11-02T04:04:29.259Z,64.36
2022-11-02T04:06:57.081Z,64.29
2022-11-02T04:09:24.499Z,64.34
2022-11-02T04:12:09.962Z,64.54
2022-11-02T04:14:41.444Z,64.57
2022-11-02T04:20:08.903Z,64.55
2022-11-02T04:22:54.378Z,64.65
2022-11-02T04:25:21.721Z,64.63
2022-11-02T04:28:14.838Z,64.86
2022-11-02T04:31:00.709Z,65.04
2022-11-02T04:33:35.128Z,64.94
2022-11-02T04:36:08.043Z,65.02
2022-11-02T04:38:41.887Z,64.89
2022-11-02T04:41:42.399Z,65.10
2022-11-02T04:44:15.847Z,65.13
2022-11-02T04:46:46.105Z,65.04
2022-11-02T04:49:15.004Z,65.02
2022-11-02T04:51:48.767Z,65.18
2022-11-02T04:54:18.777Z,64.75
2022-11-02T04:56:48.970Z,65.15
2022-11-02T04:59:16.665Z,64.86
2022-11-02T05:01:43.822Z,65.30
2022-11-02T05:04:11.170Z,65.13
2022-11-02T05:06:39.450Z,65.37
2022-11-02T05:09:06.406Z,65.02
2022-11-02T05:11:34.341Z,64.90
2022-11-02T05:14:01.932Z,64.93
2022-11-02T05:16:29.636Z,64.71
2022-11-02T05:18:57.868Z,64.46
2022-11-02T05:21:25.657Z,64.80
2022-11-02T05:23:54.750Z,64.43
2022-11-02T05:26:22.419Z,64.21
2022-11-02T05:28:52.589Z,64.42
2022-11-02T05:31:20.370Z,64.21
2022-11-02T05:33:48.814Z,64.28
2022-11-02T05:36:19.569Z,64.30
2022-11-02T05:38:55.913Z,64.51
2022-11-02T05:41:23.854Z,64.41
2022-11-02T05:43:53.742Z,64.23
2022-11-02T05:46:22.275Z,64.49
2022-11-02T05:48:49.147Z,64.38
2022-11-02T05:51:16.008Z,64.34
2022-11-02T05:53:42.882Z,64.58
2022-11-02T05:56:11.542Z,64.37
2022-11-02T05:58:38.462Z,64.22
2022-11-02T06:01:07.659Z,64.15
2022-11-02T06:03:34.995Z,64.26
2022-11-02T06:06:09.231Z,64.57
2022-11-02T06:08:37.924Z,64.33
2022-11-02T06:11:10.747Z,64.33
2022-11-02T06:13:38.004Z,64.68
2022-11-02T06:16:09.479Z,64.65
2022-11-02T06:18:37.792Z,64.34
2022-11-02T06:21:05.231Z,64.55
2022-11-02T06:23:32.093Z,64.53
2022-11-02T06:26:00.915Z,64.56
2022-11-02T06:28:28.481Z,64.69
2022-11-02T06:30:56.110Z,64.54
2022-11-02T06:33:23.550Z,64.71
2022-11-02T06:35:53.172Z,64.66
2022-11-02T06:38:20.643Z,64.58
2022-11-02T06:41:00.177Z,64.40
2022-11-02T06:43:27.091Z,64.50
2022-11-02T06:45:58.338Z,64.36
2022-11-02T06:48:32.991Z,64.45
2022-11-02T06:51:02.495Z,64.25
2022-11-02T06:53:29.410Z,64.41
2022-11-02T06:55:58.274Z,64.45
2022-11-02T06:58:26.128Z,64.32
2022-11-02T07:01:07.164Z,64.45
2022-11-02T07:03:34.975Z,64.42
2022-11-02T07:06:02.352Z,64.27
2022-11-02T07:08:29.629Z,64.07
2022-11-02T07:10:57.218Z,64.29
2022-11-02T07:13:24.110Z,64.08
2022-11-02T07:15:55.059Z,63.83
2022-11-02T07:18:22.722Z,63.93
2022-11-02T07:20:49.733Z,63.51
2022-11-02T07:23:16.625Z,63.10
2022-11-02T07:25:43.497Z,63.02
2022-11-02T07:28:10.413Z,62.90
2022-11-02T07:30:37.286Z,62.95
2022-11-02T07:33:04.641Z,62.63
2022-11-02T07:35:31.860Z,62.64
2022-11-02T07:38:07.054Z,62.59
2022-11-02T07:40:36.154Z,62.46
2022-11-02T07:43:03.783Z,62.17
2022-11-02T07:45:38.579Z,62.21
2022-11-02T07:48:05.511Z,61.78
2022-11-02T07:50:32.389Z,61.68
2022-11-02T07:52:59.351Z,61.41
2022-11-02T07:55:29.575Z,60.96
2022-11-02T07:57:58.151Z,61.01
2022-11-02T08:00:30.213Z,60.86
2022-11-02T08:02:59.672Z,60.94
2022-11-02T08:05:28.010Z,60.88
2022-11-02T08:08:03.203Z,60.91
2022-11-02T08:10:35.491Z,61.00
2022-11-02T08:13:08.969Z,60.64
2022-11-02T08:15:36.456Z,60.75
2022-11-02T08:18:19.106Z,60.37
2022-11-02T08:20:47.655Z,60.54
2022-11-02T08:23:16.681Z,60.32
2022-11-02T08:25:45.740Z,59.80
2022-11-02T08:28:17.315Z,59.43
2022-11-02T08:30:44.275Z,59.85
2022-11-02T08:33:15.474Z,59.77
2022-11-02T08:35:44.339Z,59.97
2022-11-02T08:38:11.838Z,60.02
2022-11-02T08:40:39.433Z,59.82
2022-11-02T08:43:14.463Z,59.80
2022-11-02T08:48:31.881Z,60.07
2022-11-02T08:50:58.799Z,60.08
2022-11-02T08:53:25.674Z,60.22
2022-11-02T08:55:52.565Z,60.02
2022-11-02T08:58:19.883Z,60.00
2022-11-02T09:00:46.781Z,59.61
2022-11-02T09:03:15.770Z,59.78
2022-11-02T09:05:45.434Z,59.44
2022-11-02T09:08:20.627Z,59.31
2022-11-02T09:10:52.536Z,59.34
2022-11-02T09:13:25.261Z,59.67
2022-11-02T09:15:58.405Z,58.74
2022-11-02T09:18:25.321Z,59.13
2022-11-02T09:20:52.213Z,58.86
2022-11-02T09:23:23.315Z,58.82
2022-11-02T09:25:50.522Z,58.54
2022-11-02T09:28:17.754Z,58.55
2022-11-02T09:30:44.763Z,57.87
2022-11-02T09:33:13.399Z,58.45
2022-11-02T09:35:46.923Z,58.39
2022-11-02T09:38:14.678Z,58.37
2022-11-02T09:41:12.388Z,58.33
2022-11-02T09:44:07.431Z,58.51
2022-11-02T09:46:40.233Z,58.67
2022-11-02T09:49:23.638Z,58.62
2022-11-02T09:51:59.171Z,58.45
2022-11-02T09:54:50.631Z,57.88
2022-11-02T09:57:30.702Z,57.92
2022-11-02T09:59:57.950Z,57.58
2022-11-02T10:02:33.208Z,57.18
2022-11-02T10:05:30.601Z,56.04
2022-11-02T10:08:22.244Z,56.91
2022-11-02T10:11:26.748Z,55.95
2022-11-02T10:14:02.578Z,55.83
2022-11-02T10:16:46.582Z,55.38
2022-11-02T10:19:19.731Z,54.79
2022-11-02T10:21:51.343Z,55.09
2022-11-02T10:24:37.310Z,55.12
2022-11-02T10:27:26.661Z,54.95
2022-11-02T10:30:18.277Z,54.67
2022-11-02T10:32:48.141Z,54.78
2022-11-02T10:36:19.502Z,53.82
2022-11-02T10:39:10.647Z,53.39
2022-11-02T10:42:04.241Z,53.68
2022-11-02T10:45:08.555Z,53.42
2022-11-02T10:48:07.956Z,53.77
2022-11-02T10:51:05.576Z,53.56
2022-11-02T10:53:41.796Z,53.20
2022-11-02T10:56:32.463Z,52.78
2022-11-02T10:59:03.174Z,53.37
2022-11-02T11:01:32.488Z,52.72
2022-11-02T11:04:21.143Z,52.39
2022-11-02T11:06:48.230Z,52.48
2022-11-02T11:09:27.070Z,52.55
2022-11-02T11:12:03.738Z,52.84
2022-11-02T11:20:38.722Z,51.04
2022-11-02T11:23:22.940Z,51.29
2022-11-02T11:26:06.725Z,50.64
2022-11-02T11:28:40.978Z,50.53
2022-11-02T11:31:16.715Z,50.59
2022-11-02T11:33:54.034Z,50.65
2022-11-02T11:36:33.639Z,51.18
2022-11-02T11:39:29.432Z,50.12
2022-11-02T11:41:57.122Z,50.56
2022-11-02T11:44:24.267Z,50.56
2022-11-02T11:46:56.883Z,50.21
2022-11-02T11:49:41.981Z,50.66
2022-11-02T11:52:32.133Z,49.22
2022-11-02T11:55:24.899Z,49.62
2022-11-02T11:58:21.762Z,49.60
2022-11-02T12:01:18.122Z,49.75
2022-11-02T12:03:56.567Z,49.66
2022-11-02T12:06:53.293Z,49.73
2022-11-02T12:09:40.737Z,49.73
2022-11-02T12:12:38.426Z,49.88
2022-11-02T12:15:38.783Z,49.68
2022-11-02T12:18:39.188Z,49.61
2022-11-02T12:21:39.051Z,49.58
2022-11-02T12:24:35.612Z,49.68
2022-11-02T12:27:31.896Z,49.25
2022-11-02T12:30:12.587Z,49.92
2022-11-02T12:33:01.999Z,49.71
2022-11-02T12:35:50.470Z,49.51
2022-11-02T12:38:35.807Z,49.03
2022-11-02T12:41:08.117Z,49.02
2022-11-02T12:43:50.715Z,49.36
2022-11-02T12:46:48.719Z,49.52
2022-11-02T12:49:47.917Z,49.80
2022-11-02T12:53:00.157Z,49.73
2022-11-02T12:55:41.357Z,51.51
2022-11-02T12:58:23.657Z,50.04
2022-11-02T13:00:57.245Z,50.99
2022-11-02T13:03:59.766Z,51.89
2022-11-02T13:06:44.466Z,52.88
2022-11-02T13:09:37.004Z,53.46
2022-11-02T13:12:16.895Z,54.14
2022-11-02T13:14:50.410Z,54.02
2022-11-02T13:17:35.038Z,54.87
2022-11-02T13:20:13.299Z,55.41
2022-11-02T13:22:41.280Z,55.22
2022-11-02T13:25:27.232Z,56.05
2022-11-02T13:28:04.216Z,55.88
2022-11-02T13:30:33.677Z,56.07
2022-11-02T13:33:17.414Z,56.39
2022-11-02T13:35:46.116Z,55.76
2022-11-02T13:38:12.850Z,55.52
2022-11-02T13:40:48.913Z,55.37
2022-11-02T13:44:09.653Z,55.06
2022-11-02T13:46:53.372Z,55.55
2022-11-02T13:49:34.716Z,55.56
2022-11-02T13:52:10.682Z,55.70
2022-11-02T13:54:48.971Z,55.82
2022-11-02T13:57:38.709Z,55.78
2022-11-02T14:00:28.663Z,55.93
2022-11-02T14:03:11.421Z,56.83
2022-11-02T14:05:51.801Z,56.90
2022-11-02T14:08:41.099Z,56.90
2022-11-02T14:11:11.003Z,57.39
2022-11-02T14:13:56.161Z,57.38
2022-11-02T14:16:50.586Z,57.41
2022-11-02T14:19:34.513Z,57.09
2022-11-02T14:22:01.253Z,57.04
2022-11-02T14:24:34.041Z,56.99
2022-11-02T14:27:04.731Z,56.79
2022-11-02T14:29:44.898Z,56.82
2022-11-02T14:32:20.596Z,56.30
2022-11-02T14:35:10.308Z,55.60
2022-11-02T14:38:00.241Z,55.56
2022-11-02T14:41:10.467Z,55.93
2022-11-02T14:44:16.634Z,55.77
2022-11-02T14:47:01.346Z,55.78
2022-11-02T14:49:39.048Z,56.04
2022-11-02T14:52:30.478Z,55.99
2022-11-02T14:55:18.988Z,56.08
2022-11-02T14:57:56.961Z,56.33
2022-11-02T15:00:49.137Z,56.48
2022-11-02T15:03:25.196Z,56.51
2022-11-02T15:06:10.871Z,56.53
2022-11-02T15:08:53.183Z,56.86
2022-11-02T15:11:41.839Z,56.84
2022-11-02T15:14:36.796Z,57.10
2022-11-02T15:17:15.469Z,57.09
2022-11-02T15:19:47.478Z,57.34
2022-11-02T15:22:31.622Z,57.48
2022-11-02T15:25:14.021Z,57.59
2022-11-02T15:27:43.836Z,57.64
2022-11-02T15:30:16.475Z,57.81
2022-11-02T15:33:02.007Z,58.09
2022-11-02T15:35:37.486Z,58.22
2022-11-02T15:38:29.509Z,58.32
2022-11-02T15:41:17.068Z,58.42
2022-11-02T15:44:08.445Z,58.63
2022-11-02T15:47:24.345Z,58.72
2022-11-02T15:50:24.510Z,58.97
2022-11-02T15:53:28.347Z,58.85
2022-11-02T15:56:43.670Z,59.13
2022-11-02T15:59:38.418Z,59.09
2022-11-02T16:02:27.287Z,59.10
2022-11-02T16:04:58.186Z,59.12
2022-11-02T16:07:33.240Z,59.24
2022-11-02T16:10:21.334Z,59.06
2022-11-02T16:12:59.777Z,59.22
2022-11-02T16:15:27.421Z,59.40
2022-11-02T16:17:54.976Z,59.34
2022-11-02T16:20:29.303Z,59.51
2022-11-02T16:23:05.130Z,59.61
2022-11-02T16:25:46.070Z,59.52
2022-11-02T16:28:21.214Z,59.56
2022-11-02T16:31:19.244Z,59.68
2022-11-02T16:33:58.765Z,59.38
2022-11-02T16:36:36.050Z,59.36
2022-11-02T16:39:16.807Z,59.12
2022-11-02T16:41:52.452Z,59.15
2022-11-02T16:44:27.904Z,59.12
2022-11-02T16:47:00.940Z,59.15
2022-11-02T16:49:29.009Z,58.92
2022-11-02T16:51:59.112Z,58.85
2022-11-02T16:54:27.118Z,58.82
2022-11-02T16:56:57.377Z,58.70
2022-11-02T16:59:25.458Z,58.43
2022-11-02T17:01:59.957Z,58.09
2022-11-02T17:04:30.878Z,58.35
2022-11-02T17:07:30.680Z,58.12
2022-11-02T17:09:59.662Z,58.06
2022-11-02T17:12:38.158Z,58.08
2022-11-02T17:15:17.093Z,58.27
2022-11-02T17:17:44.173Z,58.02
2022-11-02T17:20:11.621Z,57.99
2022-11-02T17:22:56.958Z,58.12
2022-11-02T17:25:31.807Z,58.07
2022-11-02T17:28:01.728Z,58.00
2022-11-02T17:30:34.512Z,58.23
2022-11-02T17:33:25.230Z,58.25
2022-11-02T17:35:55.658Z,58.11
2022-11-02T17:38:26.709Z,58.25
2022-11-02T17:40:54.554Z,58.34
2022-11-02T17:43:23.206Z,58.29
2022-11-02T17:46:00.656Z,58.54
2022-11-02T17:48:31.236Z,58.47
2022-11-02T17:51:02.250Z,58.50
2022-11-02T17:53:29.162Z,58.83
2022-11-02T17:55:56.475Z,58.27
2022-11-02T17:58:23.366Z,58.98
2022-11-02T18:00:52.190Z,58.68
2022-11-02T18:03:22.362Z,59.00
2022-11-02T18:05:53.566Z,58.78
2022-11-02T18:08:24.196Z,59.20
2022-11-02T18:10:52.297Z,59.01
2022-11-02T18:13:22.726Z,58.82
2022-11-02T18:15:50.029Z,58.96
2022-11-02T18:18:16.909Z,59.21
2022-11-02T18:20:43.816Z,59.05
2022-11-02T18:23:16.739Z,59.25
2022-11-02T18:25:43.722Z,59.38
2022-11-02T18:28:10.638Z,59.29
2022-11-02T18:30:42.078Z,59.27
2022-11-02T18:33:13.421Z,59.42
2022-11-02T18:35:42.145Z,59.30
2022-11-02T18:38:09.026Z,59.14
2022-11-02T18:40:36.096Z,59.39
2022-11-02T18:43:03.474Z,59.33
2022-11-02T18:45:30.681Z,59.56
2022-11-02T18:47:57.579Z,59.83
2022-11-02T18:50:24.501Z,59.74
2022-11-02T18:52:51.660Z,59.99
2022-11-02T18:55:18.636Z,59.76
2022-11-02T18:57:45.814Z,60.10
2022-11-02T19:00:13.870Z,60.25
2022-11-02T19:02:41.089Z,60.20
2022-11-02T19:05:28.338Z,60.37
2022-11-02T19:08:13.493Z,60.43
2022-11-02T19:10:41.253Z,60.59
2022-11-02T19:13:08.349Z,60.85
2022-11-02T19:15:38.501Z,60.78
2022-11-02T19:18:09.167Z,61.03
2022-11-02T19:20:36.079Z,60.94
2022-11-02T19:23:03.004Z,61.10
2022-11-02T19:25:29.891Z,61.22
2022-11-02T19:27:56.855Z,61.42
2022-11-02T19:30:23.746Z,61.41
2022-11-02T19:32:50.643Z,61.58
2022-11-02T19:35:17.539Z,61.44
2022-11-02T19:37:44.416Z,61.47
2022-11-02T19:40:11.751Z,61.33
2022-11-02T19:42:39.731Z,61.25
2022-11-02T19:45:07.063Z,61.10
2022-11-02T19:47:34.496Z,61.45
2022-11-02T19:50:01.375Z,61.31
2022-11-02T19:52:28.234Z,61.51
2022-11-02T19:54:55.118Z,61.46
2022-11-02T19:57:21.991Z,61.82
2022-11-02T19:59:48.868Z,61.65
2022-11-02T20:02:16.012Z,61.68
2022-11-02T20:04:44.258Z,61.76
2022-11-02T20:07:11.138Z,61.81
2022-11-02T20:09:38.790Z,61.71
2022-11-02T20:12:07.519Z,61.94
2022-11-02T20:14:36.296Z,61.87
2022-11-02T20:17:29.665Z,62.04
2022-11-02T20:19:50.067Z,61.97
2022-11-02T20:22:18.401Z,62.04
2022-11-02T20:24:45.335Z,61.92
2022-11-02T20:27:13.897Z,62.09
2022-11-02T20:29:40.882Z,62.29
2022-11-02T20:32:10.210Z,62.34
2022-11-02T20:34:37.273Z,62.18
2022-11-02T20:37:05.063Z,62.16
2022-11-02T20:39:31.939Z,62.33
2022-11-02T20:41:58.820Z,62.29
2022-11-02T20:44:25.755Z,62.76
2022-11-02T20:46:53.557Z,62.26
2022-11-02T20:49:36.437Z,62.40
2022-11-02T20:52:08.798Z,62.10
2022-11-02T20:54:35.854Z,62.10
2022-11-02T20:57:02.773Z,62.13
2022-11-02T20:59:29.646Z,62.08
2022-11-02T21:01:56.617Z,62.06
2022-11-02T21:04:23.662Z,61.83
2022-11-02T21:06:50.814Z,61.58
2022-11-02T21:09:18.792Z,61.69
2022-11-02T21:12:04.619Z,61.91
2022-11-02T21:14:31.666Z,61.91
2022-11-02T21:16:58.744Z,61.87
2022-11-02T21:19:25.634Z,61.87
2022-11-02T21:21:58.103Z,62.19
2022-11-02T21:24:26.537Z,61.80
2022-11-02T21:26:53.396Z,61.82
2022-11-02T21:29:21.180Z,62.18
2022-11-02T21:31:48.179Z,61.71
2022-11-02T21:34:15.066Z,61.90
2022-11-02T21:36:41.930Z,61.59
2022-11-02T21:39:08.819Z,61.52
2022-11-02T21:41:36.683Z,62.22
2022-11-02T21:44:03.755Z,62.07
2022-11-02T21:46:30.658Z,62.11
2022-11-02T21:48:57.556Z,61.91
2022-11-02T21:51:24.512Z,61.87
2022-11-02T21:53:51.875Z,61.64
2022-11-02T21:56:25.587Z,61.85
2022-11-02T21:58:54.562Z,61.78
2022-11-02T22:01:45.162Z,61.76
2022-11-02T22:04:31.759Z,61.83
2022-11-02T22:07:00.478Z,61.76
2022-11-02T22:09:28.595Z,62.02
2022-11-02T22:12:14.943Z,61.79
2022-11-02T22:14:43.929Z,61.87
2022-11-02T22:17:22.058Z,61.78
2022-11-02T22:19:58.558Z,61.94
2022-11-02T22:22:25.470Z,61.93
2022-11-02T22:24:52.326Z,61.48
2022-11-02T22:27:19.209Z,61.66
2022-11-02T22:29:46.142Z,61.47
2022-11-02T22:32:14.569Z,61.56
2022-11-02T22:34:43.462Z,61.14
2022-11-02T22:37:28.775Z,61.25
2022-11-02T22:39:55.683Z,61.02
2022-11-02T22:42:22.564Z,60.94
2022-11-02T22:44:49.434Z,61.15
2022-11-02T22:47:16.394Z,61.13
2022-11-02T22:49:43.249Z,61.14
2022-11-02T22:52:10.169Z,61.29
2022-11-02T22:54:37.091Z,61.01
2022-11-02T22:57:04.133Z,60.84
2022-11-02T22:59:31.017Z,61.11
2022-11-02T23:01:57.960Z,61.01
2022-11-02T23:04:24.946Z,61.00
2022-11-02T23:06:51.817Z,60.79
2022-11-02T23:09:18.723Z,60.97
2022-11-02T23:11:45.580Z,60.97
2022-11-02T23:14:15.111Z,60.80
2022-11-02T23:16:47.016Z,61.14
2022-11-02T23:19:27.170Z,61.11
2022-11-02T23:22:17.617Z,60.63
2022-11-02T23:25:11.005Z,60.90
2022-11-02T23:28:04.538Z,60.92
2022-11-02T23:30:53.886Z,60.74
2022-11-02T23:33:22.227Z,60.96
2022-11-02T23:36:08.088Z,60.70
2022-11-02T23:38:53.655Z,60.62
2022-11-02T23:41:20.535Z,60.95
2022-11-02T23:43:48.376Z,60.73
2022-11-02T23:46:15.748Z,60.85
2022-11-02T23:48:45.016Z,60.57
2022-11-02T23:51:32.366Z,60.66
2022-11-02T23:54:17.908Z,60.79
2022-11-02T23:56:44.994Z,60.76
2022-11-02T23:59:17.336Z,60.58
